createdAt,value
2022-11-27T00:00:32.425Z,0
2022-11-27T00:01:32.491Z,0
2022-11-27T00:02:36.497Z,0
2022-11-27T00:03:33.147Z,0
2022-11-27T00:04:38.396Z,0
2022-11-27T00:05:32.426Z,0
2022-11-27T00:06:32.459Z,0
2022-11-27T00:07:32.761Z,0
2022-11-27T00:08:32.480Z,0
2022-11-27T00:09:33.541Z,0
2022-11-27T00:10:32.442Z,0
2022-11-27T00:11:32.471Z,0
2022-11-27T00:12:32.458Z,0
2022-11-27T00:13:32.479Z,0
2022-11-27T00:14:32.465Z,0
2022-11-27T00:15:35.649Z,0
2022-11-27T00:16:32.883Z,0
2022-11-27T00:17:32.466Z,0
2022-11-27T00:18:32.481Z,0
2022-11-27T00:19:32.526Z,0
2022-11-27T00:20:36.513Z,0
2022-11-27T00:21:32.488Z,0
2022-11-27T00:22:32.504Z,0
2022-11-27T00:23:32.507Z,0
2022-11-27T00:24:32.512Z,0
2022-11-27T00:25:32.475Z,0
2022-11-27T00:26:39.895Z,0
2022-11-27T00:27:32.464Z,0
2022-11-27T00:28:32.480Z,0
2022-11-27T00:29:32.532Z,0
2022-11-27T00:30:32.472Z,0
2022-11-27T00:31:35.812Z,0
2022-11-27T00:32:32.472Z,0
2022-11-27T00:33:32.517Z,0
2022-11-27T00:34:32.486Z,0
2022-11-27T00:35:32.551Z,0
2022-11-27T00:36:32.498Z,0
2022-11-27T00:37:32.503Z,0
2022-11-27T00:38:38.901Z,0
2022-11-27T00:39:32.500Z,0
2022-11-27T00:40:32.495Z,0
2022-11-27T00:41:32.518Z,0
2022-11-27T00:42:35.422Z,0
2022-11-27T00:43:43.171Z,0
2022-11-27T00:44:32.504Z,0
2022-11-27T00:45:32.503Z,0
2022-11-27T00:46:35.975Z,0
2022-11-27T00:47:32.500Z,0
2022-11-27T00:48:32.577Z,0
2022-11-27T00:49:32.501Z,0
2022-11-27T00:50:32.509Z,0
2022-11-27T00:51:32.649Z,0
2022-11-27T00:52:32.503Z,0
2022-11-27T00:53:35.529Z,0
2022-11-27T00:54:32.512Z,0
2022-11-27T00:55:32.562Z,0
2022-11-27T00:56:32.505Z,0
2022-11-27T00:57:32.521Z,0
2022-11-27T00:58:32.572Z,0
2022-11-27T00:59:32.525Z,0
2022-11-27T01:00:32.524Z,0
2022-11-27T01:01:32.910Z,0
2022-11-27T01:02:32.750Z,0
2022-11-27T01:03:32.560Z,0
2022-11-27T01:04:35.405Z,0
2022-11-27T01:05:32.572Z,0
2022-11-27T01:06:32.553Z,0
2022-11-27T01:07:32.836Z,0
2022-11-27T01:08:32.548Z,0
2022-11-27T01:09:35.283Z,0
2022-11-27T01:10:32.562Z,0
2022-11-27T01:11:32.716Z,0
2022-11-27T01:12:32.530Z,0
2022-11-27T01:13:32.555Z,0
2022-11-27T01:14:32.590Z,0
2022-11-27T01:15:35.868Z,0
2022-11-27T01:16:33.041Z,0
2022-11-27T01:17:32.583Z,0
2022-11-27T01:18:32.645Z,0
2022-11-27T01:19:32.596Z,0
2022-11-27T01:20:33.633Z,0
2022-11-27T01:21:32.557Z,0
2022-11-27T01:22:32.573Z,0
2022-11-27T01:23:32.661Z,0
2022-11-27T01:24:32.548Z,0
2022-11-27T01:25:34.111Z,0
2022-11-27T01:26:35.403Z,0
2022-11-27T01:27:32.587Z,0
2022-11-27T01:28:32.597Z,0
2022-11-27T01:29:32.820Z,0
2022-11-27T01:30:32.551Z,0
2022-11-27T01:31:36.101Z,0
2022-11-27T01:32:32.584Z,0
2022-11-27T01:33:32.591Z,0
2022-11-27T01:34:32.577Z,0
2022-11-27T01:35:35.920Z,0
2022-11-27T01:36:32.599Z,0
2022-11-27T01:37:35.641Z,0
2022-11-27T01:38:35.700Z,0
2022-11-27T01:39:32.568Z,0
2022-11-27T01:40:32.588Z,0
2022-11-27T01:41:32.604Z,0
2022-11-27T01:42:35.689Z,0
2022-11-27T01:43:32.607Z,0
2022-11-27T01:44:32.594Z,0
2022-11-27T01:45:32.588Z,0
2022-11-27T01:46:33.020Z,0
2022-11-27T01:47:32.609Z,0
2022-11-27T01:48:33.682Z,0
2022-11-27T01:49:32.607Z,0
2022-11-27T01:50:32.608Z,0
2022-11-27T01:51:32.615Z,0
2022-11-27T01:52:32.599Z,0
2022-11-27T01:53:35.418Z,0
2022-11-27T01:54:32.728Z,0
2022-11-27T01:55:32.605Z,0
2022-11-27T01:56:32.595Z,0
2022-11-27T01:57:32.613Z,0
2022-11-27T01:58:32.684Z,0
2022-11-27T01:59:32.609Z,0
2022-11-27T02:00:32.637Z,0
2022-11-27T02:01:32.978Z,0
2022-11-27T02:02:33.072Z,0
2022-11-27T02:03:32.855Z,0
2022-11-27T02:04:36.563Z,0
2022-11-27T02:05:32.629Z,0
2022-11-27T02:06:32.604Z,0
2022-11-27T02:07:32.968Z,0
2022-11-27T02:08:32.671Z,0
2022-11-27T02:09:32.625Z,0
2022-11-27T02:10:32.684Z,0
2022-11-27T02:11:32.633Z,0
2022-11-27T02:12:32.635Z,0
2022-11-27T02:13:32.674Z,0
2022-11-27T02:14:38.926Z,0
2022-11-27T02:15:32.647Z,0
2022-11-27T02:16:33.020Z,0
2022-11-27T02:17:32.628Z,0
2022-11-27T02:18:32.663Z,0
2022-11-27T02:19:32.661Z,0
2022-11-27T02:20:35.781Z,0
2022-11-27T02:21:32.692Z,0
2022-11-27T02:22:32.675Z,0
2022-11-27T02:23:32.682Z,0
2022-11-27T02:24:32.645Z,0
2022-11-27T02:25:35.394Z,0
2022-11-27T02:26:32.666Z,0
2022-11-27T02:27:32.710Z,0
2022-11-27T02:28:32.697Z,0
2022-11-27T02:29:32.722Z,0
2022-11-27T02:30:32.668Z,0
2022-11-27T02:31:36.241Z,0
2022-11-27T02:32:32.660Z,0
2022-11-27T02:33:32.722Z,0
2022-11-27T02:34:32.679Z,0
2022-11-27T02:35:32.698Z,0
2022-11-27T02:36:35.826Z,0
2022-11-27T02:37:32.665Z,0
2022-11-27T02:38:32.760Z,0
2022-11-27T02:39:32.778Z,0
2022-11-27T02:40:32.694Z,0
2022-11-27T02:41:32.731Z,0
2022-11-27T02:42:36.254Z,0
2022-11-27T02:43:32.706Z,0
2022-11-27T02:44:32.731Z,0
2022-11-27T02:45:32.719Z,0
2022-11-27T02:46:33.001Z,0
2022-11-27T02:47:35.827Z,0
2022-11-27T02:48:32.688Z,0
2022-11-27T02:49:32.692Z,0
2022-11-27T02:50:32.697Z,0
2022-11-27T02:51:32.733Z,0
2022-11-27T02:52:32.726Z,0
2022-11-27T02:53:35.471Z,0
2022-11-27T02:54:32.698Z,0
2022-11-27T02:55:32.716Z,0
2022-11-27T02:56:32.708Z,0
2022-11-27T02:57:32.709Z,0
2022-11-27T02:58:39.028Z,0
2022-11-27T02:59:32.827Z,0
2022-11-27T03:00:32.788Z,0
2022-11-27T03:01:32.908Z,0
2022-11-27T03:02:32.928Z,0
2022-11-27T03:03:32.720Z,0
2022-11-27T03:04:32.733Z,0
2022-11-27T03:05:32.712Z,0
2022-11-27T03:06:32.738Z,0
2022-11-27T03:07:33.097Z,0
2022-11-27T03:08:32.720Z,0
2022-11-27T03:09:32.926Z,0
2022-11-27T03:10:32.740Z,0
2022-11-27T03:11:32.785Z,0
2022-11-27T03:12:32.725Z,0
2022-11-27T03:13:32.734Z,0
2022-11-27T03:14:44.251Z,0
2022-11-27T03:15:38.537Z,0
2022-11-27T03:16:33.183Z,0
2022-11-27T03:17:32.750Z,0
2022-11-27T03:18:32.724Z,0
2022-11-27T03:19:32.746Z,0
2022-11-27T03:20:35.646Z,0
2022-11-27T03:21:33.053Z,0
2022-11-27T03:22:32.786Z,0
2022-11-27T03:23:32.783Z,0
2022-11-27T03:24:32.744Z,0
2022-11-27T03:25:32.765Z,0
2022-11-27T03:26:32.825Z,0
2022-11-27T03:27:32.770Z,0
2022-11-27T03:28:32.843Z,0
2022-11-27T03:29:32.746Z,0
2022-11-27T03:30:32.882Z,0
2022-11-27T03:31:36.391Z,0
2022-11-27T03:32:32.780Z,0
2022-11-27T03:33:32.805Z,0
2022-11-27T03:34:32.769Z,0
2022-11-27T03:35:32.844Z,0
2022-11-27T03:36:35.885Z,0
2022-11-27T03:37:32.781Z,0
2022-11-27T03:38:32.800Z,0
2022-11-27T03:39:32.782Z,0
2022-11-27T03:40:32.809Z,0
2022-11-27T03:41:32.760Z,0
2022-11-27T03:42:35.807Z,0
2022-11-27T03:43:32.764Z,0
2022-11-27T03:44:32.813Z,0
2022-11-27T03:45:32.830Z,0
2022-11-27T03:46:33.203Z,0
2022-11-27T03:47:42.209Z,0
2022-11-27T03:48:32.906Z,0
2022-11-27T03:49:32.847Z,0
2022-11-27T03:50:32.811Z,0
2022-11-27T03:51:32.781Z,0
2022-11-27T03:52:32.775Z,0
2022-11-27T03:53:35.577Z,0
2022-11-27T03:54:32.847Z,0
2022-11-27T03:55:32.811Z,0
2022-11-27T03:56:32.802Z,0
2022-11-27T03:57:32.870Z,0
2022-11-27T03:58:35.582Z,0
2022-11-27T03:59:32.818Z,0
2022-11-27T04:00:32.796Z,0
2022-11-27T04:01:33.021Z,0
2022-11-27T04:02:32.917Z,0
2022-11-27T04:03:33.445Z,0
2022-11-27T04:04:36.093Z,0
2022-11-27T04:05:32.809Z,0
2022-11-27T04:06:32.796Z,0
2022-11-27T04:07:33.090Z,0
2022-11-27T04:08:32.804Z,0
2022-11-27T04:09:34.765Z,0
2022-11-27T04:10:32.850Z,0
2022-11-27T04:11:32.837Z,0
2022-11-27T04:12:32.836Z,0
2022-11-27T04:13:32.817Z,0
2022-11-27T04:14:32.849Z,0
2022-11-27T04:15:35.559Z,0
2022-11-27T04:16:33.155Z,0
2022-11-27T04:17:32.829Z,0
2022-11-27T04:18:32.970Z,0
2022-11-27T04:19:33.112Z,0
2022-11-27T04:20:33.188Z,0
2022-11-27T04:21:32.835Z,0
2022-11-27T04:22:32.821Z,0
2022-11-27T04:23:32.839Z,0
2022-11-27T04:24:32.894Z,0
2022-11-27T04:25:32.858Z,0
2022-11-27T04:26:32.899Z,0
2022-11-27T04:27:32.864Z,0
2022-11-27T04:28:32.832Z,0
2022-11-27T04:29:32.879Z,0
2022-11-27T04:30:32.842Z,0
2022-11-27T04:31:36.192Z,0
2022-11-27T04:32:32.882Z,0
2022-11-27T04:33:32.874Z,0
2022-11-27T04:34:33.042Z,0
2022-11-27T04:35:39.125Z,0
2022-11-27T04:36:39.349Z,0
2022-11-27T04:37:32.870Z,0
2022-11-27T04:38:32.862Z,0
2022-11-27T04:39:32.903Z,0
2022-11-27T04:40:32.857Z,0
2022-11-27T04:41:32.883Z,0
2022-11-27T04:42:32.858Z,0
2022-11-27T04:43:32.867Z,0
2022-11-27T04:44:32.890Z,0
2022-11-27T04:45:32.883Z,0
2022-11-27T04:46:33.150Z,0
2022-11-27T04:47:35.600Z,0
2022-11-27T04:48:32.887Z,0
2022-11-27T04:49:32.887Z,0
2022-11-27T04:50:33.035Z,0
2022-11-27T04:51:33.146Z,0
2022-11-27T04:52:32.985Z,0
2022-11-27T04:53:32.936Z,0
2022-11-27T04:54:32.920Z,0
2022-11-27T04:55:32.950Z,0
2022-11-27T04:56:32.924Z,0
2022-11-27T04:57:32.916Z,0
2022-11-27T04:58:35.730Z,0
2022-11-27T04:59:32.926Z,0
2022-11-27T05:00:33.291Z,0
2022-11-27T05:01:33.124Z,0
2022-11-27T05:02:33.211Z,0
2022-11-27T05:03:35.654Z,0
2022-11-27T05:04:32.921Z,0
2022-11-27T05:05:32.919Z,0
2022-11-27T05:06:33.007Z,0
2022-11-27T05:07:33.554Z,0
2022-11-27T05:08:33.021Z,0
2022-11-27T05:09:35.740Z,0
2022-11-27T05:10:33.042Z,0
2022-11-27T05:11:32.946Z,0
2022-11-27T05:12:32.970Z,0
2022-11-27T05:13:32.924Z,0
2022-11-27T05:14:34.536Z,0
2022-11-27T05:15:35.911Z,0
2022-11-27T05:16:33.297Z,0
2022-11-27T05:17:32.928Z,0
2022-11-27T05:18:32.930Z,0
2022-11-27T05:19:32.979Z,0
2022-11-27T05:20:36.069Z,0
2022-11-27T05:21:32.993Z,0
2022-11-27T05:22:33.052Z,0
2022-11-27T05:23:33.212Z,0
2022-11-27T05:24:33.093Z,0
2022-11-27T05:25:35.814Z,0
2022-11-27T05:26:33.000Z,0
2022-11-27T05:27:32.919Z,0
2022-11-27T05:28:33.966Z,0
2022-11-27T05:29:33.101Z,0
2022-11-27T05:30:32.971Z,0
2022-11-27T05:31:36.191Z,0
2022-11-27T05:32:32.942Z,0
2022-11-27T05:33:32.930Z,0
2022-11-27T05:34:32.978Z,0
2022-11-27T05:35:32.965Z,0
2022-11-27T05:36:35.742Z,0
2022-11-27T05:37:32.960Z,0
2022-11-27T05:38:33.087Z,0
2022-11-27T05:39:33.245Z,0
2022-11-27T05:40:33.071Z,0
2022-11-27T05:41:32.946Z,0
2022-11-27T05:42:32.999Z,0
2022-11-27T05:43:32.953Z,0
2022-11-27T05:44:32.982Z,0
2022-11-27T05:45:33.015Z,0
2022-11-27T05:46:33.330Z,0
2022-11-27T05:47:35.935Z,0
2022-11-27T05:48:32.993Z,0
2022-11-27T05:49:32.980Z,0
2022-11-27T05:50:33.003Z,0
2022-11-27T05:51:33.014Z,0
2022-11-27T05:52:33.018Z,0
2022-11-27T05:53:32.981Z,0
2022-11-27T05:54:33.151Z,0
2022-11-27T05:55:33.231Z,0
2022-11-27T05:56:33.207Z,0
2022-11-27T05:57:33.022Z,0
2022-11-27T05:58:36.078Z,0
2022-11-27T05:59:33.007Z,0
2022-11-27T06:00:33.042Z,0
2022-11-27T06:01:33.212Z,0
2022-11-27T06:02:36.965Z,0
2022-11-27T06:03:36.208Z,0
2022-11-27T06:04:33.025Z,0
2022-11-27T06:05:33.008Z,0
2022-11-27T06:06:33.089Z,0
2022-11-27T06:07:33.340Z,0
2022-11-27T06:08:33.012Z,0
2022-11-27T06:09:36.419Z,0
2022-11-27T06:10:33.043Z,0
2022-11-27T06:11:33.273Z,0
2022-11-27T06:12:33.149Z,0
2022-11-27T06:13:33.056Z,0
2022-11-27T06:14:36.295Z,0
2022-11-27T06:15:33.038Z,0
2022-11-27T06:16:33.321Z,0
2022-11-27T06:17:33.040Z,0
2022-11-27T06:18:33.006Z,0
2022-11-27T06:19:33.067Z,0
2022-11-27T06:20:43.851Z,0
2022-11-27T06:21:33.021Z,0
2022-11-27T06:22:33.166Z,0
2022-11-27T06:23:33.057Z,0
2022-11-27T06:24:33.097Z,0
2022-11-27T06:25:34.954Z,0
2022-11-27T06:26:33.072Z,0
2022-11-27T06:27:33.269Z,4
2022-11-27T06:28:33.177Z,0
2022-11-27T06:29:33.068Z,0
2022-11-27T06:30:33.069Z,4
2022-11-27T06:31:37.060Z,0
2022-11-27T06:32:33.073Z,4
2022-11-27T06:33:33.047Z,4
2022-11-27T06:34:33.055Z,0
2022-11-27T06:35:33.066Z,0
2022-11-27T06:36:35.841Z,4
2022-11-27T06:37:33.026Z,4
2022-11-27T06:38:33.065Z,4
2022-11-27T06:39:33.052Z,4
2022-11-27T06:40:33.078Z,4
2022-11-27T06:41:33.194Z,4
2022-11-27T06:42:36.318Z,8
2022-11-27T06:43:33.173Z,4
2022-11-27T06:44:33.205Z,8
2022-11-27T06:45:33.305Z,4
2022-11-27T06:46:33.088Z,12
2022-11-27T06:47:35.832Z,8
2022-11-27T06:48:33.079Z,8
2022-11-27T06:49:33.056Z,8
2022-11-27T06:50:33.088Z,12
2022-11-27T06:51:33.083Z,12
2022-11-27T06:52:40.300Z,12
2022-11-27T06:53:33.070Z,12
2022-11-27T06:54:33.056Z,12
2022-11-27T06:55:33.113Z,12
2022-11-27T06:56:33.071Z,12
2022-11-27T06:57:33.220Z,12
2022-11-27T06:58:38.115Z,12
2022-11-27T06:59:33.118Z,12
2022-11-27T07:00:33.381Z,16
2022-11-27T07:01:33.506Z,16
2022-11-27T07:02:33.462Z,16
2022-11-27T07:03:33.168Z,20
2022-11-27T07:04:33.132Z,20
2022-11-27T07:05:33.138Z,16
2022-11-27T07:06:33.141Z,16
2022-11-27T07:07:33.387Z,20
2022-11-27T07:08:33.101Z,20
2022-11-27T07:09:33.091Z,20
2022-11-27T07:10:33.216Z,24
2022-11-27T07:11:33.102Z,24
2022-11-27T07:12:35.868Z,20
2022-11-27T07:13:33.248Z,24
2022-11-27T07:14:37.431Z,24
2022-11-27T07:15:33.144Z,24
2022-11-27T07:16:33.605Z,24
2022-11-27T07:17:33.124Z,24
2022-11-27T07:18:33.100Z,24
2022-11-27T07:19:33.122Z,28
2022-11-27T07:20:33.168Z,28
2022-11-27T07:21:33.163Z,28
2022-11-27T07:22:33.099Z,32
2022-11-27T07:23:33.119Z,32
2022-11-27T07:24:33.112Z,32
2022-11-27T07:25:36.005Z,32
2022-11-27T07:26:33.206Z,36
2022-11-27T07:27:33.126Z,36
2022-11-27T07:28:33.122Z,36
2022-11-27T07:29:33.267Z,40
2022-11-27T07:30:34.864Z,40
2022-11-27T07:31:33.471Z,40
2022-11-27T07:32:33.255Z,40
2022-11-27T07:33:33.142Z,40
2022-11-27T07:34:33.128Z,40
2022-11-27T07:35:33.187Z,44
2022-11-27T07:36:35.974Z,48
2022-11-27T07:37:33.141Z,44
2022-11-27T07:38:33.143Z,48
2022-11-27T07:40:11.215Z,52
2022-11-27T07:40:33.289Z,52
2022-11-27T07:41:40.270Z,60
2022-11-27T07:42:48.503Z,56
2022-11-27T07:43:33.352Z,60
2022-11-27T07:44:33.155Z,64
2022-11-27T07:45:33.696Z,64
2022-11-27T07:46:33.387Z,60
2022-11-27T07:47:33.189Z,64
2022-11-27T07:48:33.296Z,60
2022-11-27T07:49:33.152Z,64
2022-11-27T07:50:33.303Z,64
2022-11-27T07:51:33.150Z,56
2022-11-27T07:52:44.025Z,60
2022-11-27T07:53:33.176Z,56
2022-11-27T07:54:33.169Z,56
2022-11-27T07:55:33.206Z,56
2022-11-27T07:56:33.166Z,60
2022-11-27T07:57:33.193Z,60
2022-11-27T07:58:33.160Z,60
2022-11-27T07:59:33.259Z,60
2022-11-27T08:00:33.284Z,64
2022-11-27T08:01:33.649Z,60
2022-11-27T08:02:33.448Z,60
2022-11-27T08:03:35.968Z,64
2022-11-27T08:04:33.544Z,60
2022-11-27T08:05:33.216Z,60
2022-11-27T08:06:33.198Z,60
2022-11-27T08:07:33.660Z,60
2022-11-27T08:08:33.198Z,60
2022-11-27T08:09:33.180Z,64
2022-11-27T08:10:33.333Z,64
2022-11-27T08:11:33.190Z,68
2022-11-27T08:12:33.200Z,68
2022-11-27T08:13:33.212Z,68
2022-11-27T08:14:36.069Z,68
2022-11-27T08:15:33.251Z,72
2022-11-27T08:16:33.607Z,76
2022-11-27T08:17:33.399Z,72
2022-11-27T08:18:33.456Z,72
2022-11-27T08:19:33.238Z,76
2022-11-27T08:20:33.359Z,80
2022-11-27T08:21:33.198Z,80
2022-11-27T08:22:33.214Z,80
2022-11-27T08:23:33.233Z,80
2022-11-27T08:24:33.222Z,80
2022-11-27T08:25:36.573Z,76
2022-11-27T08:26:33.224Z,76
2022-11-27T08:27:33.251Z,76
2022-11-27T08:28:33.239Z,76
2022-11-27T08:29:39.421Z,80
2022-11-27T08:30:33.543Z,80
2022-11-27T08:31:33.472Z,76
2022-11-27T08:32:33.218Z,72
2022-11-27T08:33:33.377Z,80
2022-11-27T08:34:33.482Z,80
2022-11-27T08:35:33.875Z,72
2022-11-27T08:36:36.395Z,72
2022-11-27T08:37:33.275Z,72
2022-11-27T08:38:33.232Z,72
2022-11-27T08:39:33.256Z,72
2022-11-27T08:40:33.257Z,72
2022-11-27T08:41:34.902Z,80
2022-11-27T08:42:33.242Z,84
2022-11-27T08:43:33.222Z,80
2022-11-27T08:44:33.244Z,76
2022-11-27T08:45:33.418Z,80
2022-11-27T08:46:33.253Z,80
2022-11-27T08:47:36.286Z,80
2022-11-27T08:48:33.233Z,88
2022-11-27T08:49:33.360Z,88
2022-11-27T08:50:33.509Z,92
2022-11-27T08:51:33.288Z,92
2022-11-27T08:52:36.119Z,92
2022-11-27T08:53:33.271Z,92
2022-11-27T08:54:33.250Z,96
2022-11-27T08:55:33.287Z,108
2022-11-27T08:56:33.347Z,112
2022-11-27T08:57:33.483Z,100
2022-11-27T08:58:36.358Z,100
2022-11-27T08:59:33.295Z,88
2022-11-27T09:00:35.169Z,100
2022-11-27T09:01:33.752Z,124
2022-11-27T09:02:33.296Z,116
2022-11-27T09:03:36.529Z,108
2022-11-27T09:04:33.661Z,116
2022-11-27T09:05:33.389Z,120
2022-11-27T09:06:33.547Z,120
2022-11-27T09:07:33.563Z,132
2022-11-27T09:08:33.417Z,112
2022-11-27T09:09:36.294Z,108
2022-11-27T09:10:33.349Z,116
2022-11-27T09:11:33.389Z,116
2022-11-27T09:12:33.283Z,108
2022-11-27T09:13:33.300Z,108
2022-11-27T09:14:36.379Z,120
2022-11-27T09:15:33.422Z,112
2022-11-27T09:16:33.557Z,112
2022-11-27T09:17:33.389Z,112
2022-11-27T09:18:33.304Z,112
2022-11-27T09:19:33.318Z,116
2022-11-27T09:20:33.314Z,112
2022-11-27T09:21:33.458Z,116
2022-11-27T09:22:33.599Z,120
2022-11-27T09:23:33.294Z,108
2022-11-27T09:24:33.419Z,104
2022-11-27T09:25:36.131Z,116
2022-11-27T09:26:33.354Z,120
2022-11-27T09:27:33.378Z,132
2022-11-27T09:28:38.191Z,124
2022-11-27T09:29:33.350Z,96
2022-11-27T09:30:33.348Z,88
2022-11-27T09:31:33.888Z,116
2022-11-27T09:32:33.414Z,120
2022-11-27T09:33:33.361Z,116
2022-11-27T09:34:40.187Z,116
2022-11-27T09:35:33.820Z,116
2022-11-27T09:36:33.393Z,112
2022-11-27T09:37:33.464Z,116
2022-11-27T09:38:33.627Z,116
2022-11-27T09:39:33.365Z,124
2022-11-27T09:40:33.708Z,128
2022-11-27T09:41:36.452Z,140
2022-11-27T09:42:33.352Z,148
2022-11-27T09:43:33.345Z,140
2022-11-27T09:44:33.405Z,152
2022-11-27T09:45:33.625Z,156
2022-11-27T09:46:33.525Z,136
2022-11-27T09:47:36.126Z,160
2022-11-27T09:48:33.389Z,180
2022-11-27T09:49:33.350Z,172
2022-11-27T09:50:33.440Z,176
2022-11-27T09:51:33.387Z,176
2022-11-27T09:52:36.136Z,168
2022-11-27T09:53:33.499Z,136
2022-11-27T09:54:33.599Z,148
2022-11-27T09:55:33.402Z,128
2022-11-27T09:56:33.497Z,128
2022-11-27T09:57:36.382Z,120
2022-11-27T09:58:33.444Z,124
2022-11-27T09:59:33.378Z,128
2022-11-27T10:00:33.364Z,140
2022-11-27T10:01:53.656Z,120
2022-11-27T10:02:34.345Z,128
2022-11-27T10:03:36.493Z,100
2022-11-27T10:05:15.775Z,124
2022-11-27T10:05:33.977Z,124
2022-11-27T10:06:33.445Z,128
2022-11-27T10:07:34.301Z,136
2022-11-27T10:08:34.527Z,136
2022-11-27T10:09:33.510Z,148
2022-11-27T10:10:33.631Z,148
2022-11-27T10:11:33.387Z,140
2022-11-27T10:12:33.571Z,144
2022-11-27T10:13:33.474Z,152
2022-11-27T10:14:33.384Z,152
2022-11-27T10:15:33.392Z,148
2022-11-27T10:16:33.772Z,144
2022-11-27T10:17:33.428Z,144
2022-11-27T10:18:33.418Z,144
2022-11-27T10:19:36.283Z,136
2022-11-27T10:20:33.397Z,140
2022-11-27T10:21:33.401Z,140
2022-11-27T10:22:33.448Z,144
2022-11-27T10:23:33.413Z,144
2022-11-27T10:24:33.388Z,152
2022-11-27T10:25:33.507Z,156
2022-11-27T10:26:33.669Z,140
2022-11-27T10:27:33.908Z,112
2022-11-27T10:28:33.535Z,104
2022-11-27T10:29:33.425Z,124
2022-11-27T10:30:36.595Z,144
2022-11-27T10:31:33.835Z,136
2022-11-27T10:33:01.866Z,160
2022-11-27T10:33:33.415Z,156
2022-11-27T10:34:33.429Z,144
2022-11-27T10:35:33.436Z,136
2022-11-27T10:36:33.416Z,140
2022-11-27T10:37:33.447Z,144
2022-11-27T10:38:33.482Z,136
2022-11-27T10:39:33.436Z,144
2022-11-27T10:40:33.427Z,152
2022-11-27T10:41:56.591Z,152
2022-11-27T10:42:33.495Z,136
2022-11-27T10:43:33.436Z,140
2022-11-27T10:44:33.567Z,140
2022-11-27T10:45:33.617Z,140
2022-11-27T10:46:33.724Z,140
2022-11-27T10:47:39.833Z,152
2022-11-27T10:48:33.441Z,152
2022-11-27T10:49:33.485Z,156
2022-11-27T10:50:33.434Z,156
2022-11-27T10:51:33.456Z,148
2022-11-27T10:52:34.518Z,140
2022-11-27T10:53:33.425Z,148
2022-11-27T10:54:33.436Z,156
2022-11-27T10:55:33.466Z,160
2022-11-27T10:56:33.469Z,152
2022-11-27T10:57:34.423Z,152
2022-11-27T10:58:33.460Z,148
2022-11-27T10:59:39.710Z,156
2022-11-27T11:00:33.618Z,164
2022-11-27T11:01:33.635Z,172
2022-11-27T11:02:33.768Z,168
2022-11-27T11:03:36.260Z,160
2022-11-27T11:05:57.159Z,168
2022-11-27T11:06:32.363Z,168
2022-11-27T11:07:31.297Z,168
2022-11-27T11:08:34.089Z,172
2022-11-27T11:09:30.967Z,176
2022-11-27T11:10:30.972Z,172
2022-11-27T11:11:30.994Z,180
2022-11-27T11:12:31.022Z,196
2022-11-27T11:13:31.355Z,196
2022-11-27T11:14:33.837Z,196
2022-11-27T11:15:30.974Z,188
2022-11-27T11:16:41.963Z,184
2022-11-27T11:17:31.507Z,172
2022-11-27T11:18:30.987Z,160
2022-11-27T11:19:34.109Z,160
2022-11-27T11:20:30.975Z,168
2022-11-27T11:21:30.960Z,176
2022-11-27T11:22:31.013Z,172
2022-11-27T11:23:31.019Z,156
2022-11-27T11:24:31.003Z,156
2022-11-27T11:25:33.965Z,160
2022-11-27T11:26:31.013Z,164
2022-11-27T11:27:31.041Z,160
2022-11-27T11:28:34.014Z,164
2022-11-27T11:29:31.425Z,160
2022-11-27T11:30:33.766Z,160
2022-11-27T11:31:31.328Z,172
2022-11-27T11:32:31.007Z,172
2022-11-27T11:33:31.157Z,160
2022-11-27T11:34:30.991Z,168
2022-11-27T11:35:31.000Z,176
2022-11-27T11:36:31.014Z,172
2022-11-27T11:37:31.017Z,164
2022-11-27T11:38:31.020Z,156
2022-11-27T11:39:31.020Z,160
2022-11-27T11:40:30.994Z,156
2022-11-27T11:41:31.179Z,168
2022-11-27T11:42:31.062Z,168
2022-11-27T11:43:31.040Z,164
2022-11-27T11:44:31.059Z,156
2022-11-27T11:45:38.028Z,152
2022-11-27T11:46:31.318Z,156
2022-11-27T11:47:31.059Z,164
2022-11-27T11:48:31.051Z,164
2022-11-27T11:49:31.138Z,160
2022-11-27T11:50:30.908Z,148
2022-11-27T11:51:36.145Z,152
2022-11-27T11:52:33.897Z,168
2022-11-27T11:53:31.110Z,156
2022-11-27T11:54:31.033Z,152
2022-11-27T11:55:31.034Z,152
2022-11-27T11:56:31.046Z,160
2022-11-27T11:57:31.056Z,164
2022-11-27T11:58:31.037Z,180
2022-11-27T11:59:31.029Z,192
2022-11-27T12:01:27.940Z,184
2022-11-27T12:01:37.516Z,184
2022-11-27T12:02:37.855Z,172
2022-11-27T12:03:37.374Z,164
2022-11-27T12:04:37.758Z,156
2022-11-27T12:05:37.384Z,152
2022-11-27T12:06:37.375Z,144
2022-11-27T12:07:37.684Z,144
2022-11-27T12:08:40.459Z,132
2022-11-27T12:09:37.435Z,124
2022-11-27T12:10:37.409Z,104
2022-11-27T12:11:37.411Z,104
2022-11-27T12:12:37.443Z,108
2022-11-27T12:13:40.270Z,104
2022-11-27T12:14:37.435Z,108
2022-11-27T12:15:37.407Z,124
2022-11-27T12:16:38.000Z,132
2022-11-27T12:17:37.596Z,136
2022-11-27T12:18:37.401Z,140
2022-11-27T12:19:40.184Z,140
2022-11-27T12:20:42.810Z,136
2022-11-27T12:21:37.516Z,136
2022-11-27T12:22:37.432Z,148
2022-11-27T12:23:37.407Z,152
2022-11-27T12:24:37.439Z,144
2022-11-27T12:25:37.402Z,144
2022-11-27T12:26:37.411Z,124
2022-11-27T12:27:37.519Z,116
2022-11-27T12:28:37.432Z,112
2022-11-27T12:29:37.426Z,116
2022-11-27T12:30:40.185Z,124
2022-11-27T12:31:37.798Z,120
2022-11-27T12:32:43.014Z,120
2022-11-27T12:33:37.661Z,108
2022-11-27T12:34:37.410Z,108
2022-11-27T12:35:37.436Z,104
2022-11-27T12:36:37.429Z,104
2022-11-27T12:37:37.555Z,112
2022-11-27T12:38:37.416Z,112
2022-11-27T12:39:37.431Z,112
2022-11-27T12:40:37.457Z,108
2022-11-27T12:41:40.214Z,120
2022-11-27T12:42:37.443Z,128
2022-11-27T12:43:37.514Z,132
2022-11-27T12:44:37.441Z,136
2022-11-27T12:45:37.903Z,132
2022-11-27T12:46:37.547Z,124
2022-11-27T12:47:44.612Z,120
2022-11-27T12:48:37.450Z,116
2022-11-27T12:49:37.692Z,112
2022-11-27T12:50:37.480Z,112
2022-11-27T12:51:37.464Z,112
2022-11-27T12:52:40.299Z,100
2022-11-27T12:53:37.581Z,92
2022-11-27T12:54:37.478Z,88
2022-11-27T12:55:37.346Z,88
2022-11-27T12:56:37.444Z,80
2022-11-27T12:57:40.285Z,76
2022-11-27T12:58:37.674Z,88
2022-11-27T12:59:37.452Z,100
2022-11-27T13:00:37.499Z,104
2022-11-27T13:01:37.805Z,108
2022-11-27T13:02:37.945Z,96
2022-11-27T13:03:40.485Z,96
2022-11-27T13:04:37.468Z,108
2022-11-27T13:05:37.714Z,108
2022-11-27T13:06:37.471Z,104
2022-11-27T13:07:37.810Z,116
2022-11-27T13:08:39.035Z,120
2022-11-27T13:09:37.602Z,120
2022-11-27T13:10:37.504Z,108
2022-11-27T13:11:37.472Z,96
2022-11-27T13:12:37.469Z,100
2022-11-27T13:13:38.528Z,96
2022-11-27T13:14:48.624Z,92
2022-11-27T13:15:37.488Z,88
2022-11-27T13:16:37.905Z,92
2022-11-27T13:17:37.518Z,88
2022-11-27T13:18:37.540Z,88
2022-11-27T13:19:40.425Z,92
2022-11-27T13:20:37.511Z,96
2022-11-27T13:21:37.770Z,96
2022-11-27T13:22:37.547Z,92
2022-11-27T13:23:37.549Z,88
2022-11-27T13:24:37.535Z,88
2022-11-27T13:25:43.687Z,84
2022-11-27T13:26:37.676Z,76
2022-11-27T13:27:37.542Z,72
2022-11-27T13:28:37.575Z,68
2022-11-27T13:29:37.536Z,68
2022-11-27T13:30:40.297Z,64
2022-11-27T13:31:37.971Z,64
2022-11-27T13:32:38.538Z,64
2022-11-27T13:33:37.527Z,60
2022-11-27T13:34:37.528Z,56
2022-11-27T13:35:37.740Z,56
2022-11-27T13:36:46.132Z,60
2022-11-27T13:37:37.538Z,56
2022-11-27T13:38:37.589Z,56
2022-11-27T13:39:37.539Z,56
2022-11-27T13:40:37.556Z,56
2022-11-27T13:41:40.366Z,52
2022-11-27T13:42:40.639Z,56
2022-11-27T13:43:40.739Z,60
2022-11-27T13:44:37.604Z,60
2022-11-27T13:45:37.893Z,60
2022-11-27T13:46:37.646Z,64
2022-11-27T13:47:41.709Z,68
2022-11-27T13:48:37.585Z,64
2022-11-27T13:49:37.534Z,64
2022-11-27T13:50:38.568Z,64
2022-11-27T13:51:37.667Z,72
2022-11-27T13:52:40.870Z,72
2022-11-27T13:53:37.609Z,72
2022-11-27T13:54:37.629Z,72
2022-11-27T13:55:37.577Z,76
2022-11-27T13:56:37.563Z,76
2022-11-27T13:57:37.574Z,76
2022-11-27T13:58:38.440Z,72
2022-11-27T13:59:44.157Z,72
2022-11-27T14:00:37.662Z,68
2022-11-27T14:01:38.104Z,64
2022-11-27T14:02:37.923Z,64
2022-11-27T14:03:40.663Z,64
2022-11-27T14:04:37.553Z,60
2022-11-27T14:05:37.559Z,60
2022-11-27T14:06:37.563Z,64
2022-11-27T14:07:38.098Z,60
2022-11-27T14:08:37.876Z,60
2022-11-27T14:09:37.583Z,60
2022-11-27T14:10:37.823Z,56
2022-11-27T14:11:37.712Z,52
2022-11-27T14:12:37.609Z,48
2022-11-27T14:13:37.636Z,52
2022-11-27T14:14:37.875Z,48
2022-11-27T14:15:38.008Z,44
2022-11-27T14:16:37.920Z,44
2022-11-27T14:17:37.581Z,40
2022-11-27T14:18:37.601Z,40
2022-11-27T14:19:41.215Z,40
2022-11-27T14:20:37.787Z,40
2022-11-27T14:21:37.590Z,36
2022-11-27T14:23:13.004Z,32